Metar Report
Metar
CURRENT KEWK 200556Z AUTO 36012KT 7SM BKN004 OVC032 11/08 A3002 A02 5361
CURRENT KEWK 200456Z AUTO 01010KT 10SM FEW018 BKN036 OVC045 11/08 A3004 A02 5360
CURRENT KEWK 200356Z AUTO 35015KT 10+SM FEW005 OVC014 11/08 A3005 A02 5359
CURRENT KEWK 200256Z AUTO 32011KT 10SM OVC012 12/08 A3007 A02 5358
CURRENT KEWK 200156Z AUTO 00000KT 5SM OVC037 14/11 A3006 A02 5357
CURRENT KEWK 200056Z AUTO 08005KT 10+SM BKN034 BKN042 OVC065 16/11 A3006 A02 5356
CURRENT KEWK 192356Z AUTO 09007KT 10+SM SCT042 SCT095 BKN120 17/11 A3005 A02 5355
CURRENT KEWK 192256Z AUTO 10005KT 10+SM FEW030 BKN043 BKN050 18/11 A3007 A02 5354
CURRENT KEWK 192156Z AUTO 10007KT 10+SM FEW043 19/11 A3008 A02 5353
CURRENT KEWK 192056Z AUTO 08008KT 10+SM SCT037 SCT045 19/10 A3011 A02 5352
CURRENT KEWK 191956Z AUTO 07006KT 10+SM SCT037 BKN120 18/09 A3013 A02 5351
CURRENT KEWK 191856Z AUTO 09007KT 060V130 10+SM FEW030 SCT039 18/10 A3015 A02 5350
CURRENT KEWK 191756Z AUTO 08008KT 10+SM SCT028 18/09 A3017 A02 5349
CURRENT KEWK 191656Z AUTO 05009KT 10+SM FEW026 16/08 A3019 A02 5348
CURRENT KEWK 191556Z AUTO 03007KT 10+SM BKN020 15/08 A3021 A02 5347
CURRENT KEWK 191456Z AUTO 01007KT 10+SM CLR 13/08 A3024 A02 5346
CURRENT KEWK 191356Z AUTO 01009KT 10+SM CLR 12/08 A3023 A02 5345
CURRENT KEWK 191256Z AUTO 02004KT 10+SM CLR 08/05 A3023 A02 5344
CURRENT KEWK 191156Z AUTO 36003KT 9SM CLR 06/03 A3021 A02 5343
CURRENT KEWK 191056Z AUTO 35005KT 1/2SM VV005 05/02 A3020 A02 5342
CURRENT KEWK 190956Z AUTO 31003KT 7SM CLR 06/02 A3021 A02 5341
CURRENT KEWK 190856Z AUTO 00000KT 10+SM CLR 08/04 A3021 A02 5340
CURRENT KEWK 190756Z AUTO 02003KT 10+SM CLR 08/05 A3021 A02 5339
CURRENT KEWK 190656Z AUTO 35003KT 10+SM CLR 08/05 A3023 A02 5338
CURRENT KEWK 190556Z AUTO 01005KT 10+SM CLR 08/05 A3024 A02 5337
CURRENT KEWK 190456Z AUTO 36004KT 10+SM CLR 09/06 A3025 A02 5336
CURRENT KEWK 190356Z AUTO 02003KT 10+SM CLR 10/07 A3026 A02 5335
CURRENT KEWK 190256Z AUTO 03004KT 10+SM CLR 11/07 A3024 A02 5334
CURRENT KEWK 190156Z AUTO 36003KT 10+SM SCT022 12/08 A3023 A02 5333
CURRENT KEWK 190056Z AUTO 34004KT 10+SM OVC020 13/08 A3022 A02 5332
CURRENT KEWK 182356Z AUTO 34005KT 10+SM OVC020 14/08 A3021 A02 5331
CURRENT KEWK 182256Z AUTO 32009KT 10+SM OVC014 13/09 A3022 A02 5330
CURRENT KEWK 182156Z AUTO 34009KT 10+SM OVC014 14/09 A3021 A02 5329
CURRENT KEWK 182056Z AUTO 32008KT 10+SM OVC012 13/09 A3022 A02 5328
CURRENT KEWK 181956Z AUTO 33008KT 10+SM OVC010 13/08 A3021 A02 5327
CURRENT KEWK 181856Z AUTO 30010KT 4SM OVC008 12/08 A3022 A02 5326
CURRENT KEWK 181756Z AUTO 29012G16KT 10+SM OVC010 12/08 A3022 A02 5325
CURRENT KEWK 181656Z AUTO 31011KT 10+SM OVC008 11/08 A3022 A02 5324
CURRENT KEWK 181556Z AUTO 31012KT 6SM OVC008 10/07 A3020 A02 5323
CURRENT KEWK 181456Z AUTO 31013KT 10+SM OVC006 09/06 A3019 A02 5322
CURRENT KEWK 181356Z AUTO 31014KT 9SM BKN006 BKN018 OVC035 09/06 A3018 A02 5321
CURRENT KEWK 181256Z AUTO 29014KT 8SM BKN005 OVC041 09/07 A3017 A02 5320
CURRENT KEWK 181156Z AUTO 29010KT 6SM SCT005 BKN031 OVC043 11/08 A3016 A02 5319
CURRENT KEWK 181056Z AUTO 28008KT 5SM BKN004 BKN008 OVC030 11/08 A3014 A02 5318
CURRENT KEWK 180956Z AUTO 28008KT 7SM FEW004 SCT009 OVC014 12/09 A3012 A02 5317
CURRENT KEWK 180856Z AUTO 14008KT 7SM SCT006 BKN011 OVC019 16/13 A3012 A02 5316
CURRENT KEWK 180756Z AUTO 13008KT 8SM OVC004 16/13 A3012 A02 5315
CURRENT KEWK 180656Z AUTO 13009KT 8SM OVC004 15/13 A3014 A02 5314
CURRENT KEWK 180556Z AUTO 13007KT 10SM OVC005 15/13 A3016 A02 5313
CURRENT KEWK 180456Z AUTO 12006KT 10+SM BKN006 OVC013 15/13 A3016 A02 5312
CURRENT KEWK 180356Z AUTO 12008KT 10+SM BKN005 OVC048 16/13 A3016 A02 5311
CURRENT KEWK 180256Z AUTO 13006KT 10+SM OVC006 16/13 A3017 A02 5310
CURRENT KEWK 180156Z AUTO 12007KT 10+SM FEW008 OVC043 16/13 A3015 A02 5309
CURRENT KEWK 180056Z AUTO 11006KT 10+SM FEW010 SCT040 OVC050 16/13 A3013 A02 5308
CURRENT KEWK 172356Z AUTO 11005KT 10+SM SCT006 OVC070 16/13 A3012 A02 5307
CURRENT KEWK 172256Z AUTO 12008KT 10+SM FEW006 SCT010 BKN016 16/13 A3011 A02 5306
CURRENT KEWK 172156Z AUTO 13009KT 10+SM BKN008 OVC014 16/13 A3012 A02 5305
CURRENT KEWK 172056Z AUTO 13010KT 9SM BKN008 OVC018 16/13 A3012 A02 5304
CURRENT KEWK 171956Z AUTO 12010KT 10+SM BKN008 BKN015 OVC080 16/13 A3013 A02 5303
CURRENT KEWK 171856Z AUTO 11012KT 10+SM SCT007 BKN031 OVC070 16/13 A3013 A02 5302
CURRENT KEWK 171756Z AUTO 10017G24KT 10+SM OVC006 16/13 A3010 A02 5301
CURRENT KEWK 171656Z AUTO 13015G18KT 10SM BKN005 BKN015 OVC029 15/12 A3015 A02 5300
CURRENT KEWK 171556Z AUTO 15011G16KT 10+SM OVC006 15/12 A3015 A02 5299
CURRENT KEWK 171456Z AUTO 14010KT 10+SM OVC006 14/12 A3014 A02 5298
CURRENT KEWK 171356Z AUTO 13014KT 9SM SCT006 OVC012 14/11 A3014 A02 5297
CURRENT KEWK 171256Z AUTO 13013KT 9SM BKN009 OVC014 14/11 A3011 A02 5296
CURRENT KEWK 171156Z AUTO 11011KT 10+SM OVC013 14/11 A3010 A02 5295
CURRENT KEWK 171056Z AUTO 11010KT 9SM SCT028 BKN033 OVC039 14/11 A3009 A02 5294
CURRENT KEWK 170956Z AUTO 11010KT 4SM BKN019 BKN027 OVC035 14/11 A3009 A02 5293
CURRENT KEWK 170856Z AUTO 13008KT 10+SM OVC019 16/11 A3009 A02 5292
CURRENT KEWK 170756Z AUTO 13011KT 10+SM OVC019 16/11 A3007 A02 5291
CURRENT KEWK 170656Z AUTO 15014G22KT 10+SM OVC019 16/11 A3008 A02 5290
CURRENT KEWK 170556Z AUTO 13020G26KT 10+SM BKN021 OVC026 16/11 A3005 A02 5289
CURRENT KEWK 170456Z AUTO 13024G30KT 10+SM OVC019 17/11 A3003 A02 5288
CURRENT KEWK 170356Z AUTO 11021G26KT 10+SM FEW085 17/11 A3002 A02 5287
CURRENT KEWK 170256Z AUTO 13020G29KT 10+SM BKN075 17/11 A3003 A02 5286
CURRENT KEWK 170156Z AUTO 13019G26KT 10+SM FEW039 BKN047 BKN075 18/11 A3001 A02 5285
CURRENT KEWK 170056Z AUTO 13016G26KT 10+SM FEW028 SCT037 BKN080 18/11 A2999 A02 5284
CURRENT KEWK 162356Z AUTO 13021G29KT 10+SM BKN043 OVC080 19/12 A2998 A02 5283
CURRENT KEWK 162256Z AUTO 14017G27KT 10+SM BKN036 OVC044 20/11 A2997 A02 5282
CURRENT KEWK 162156Z AUTO 15018G30KT 10+SM BKN043 OVC050 20/11 A2997 A02 5281
CURRENT KEWK 162056Z AUTO 13020G27KT 10+SM BKN039 OVC047 21/12 A2996 A02 5280
CURRENT KEWK 161956Z AUTO 14021G28KT 10+SM FEW032 BKN041 OVC048 21/11 A2998 A02 5279
CURRENT KEWK 161856Z AUTO 14022G29KT 6SM BKN036 OVC045 21/11 A2998 A02 5278
CURRENT KEWK 161756Z AUTO 13022G27KT 10+SM FEW026 SCT031 BKN037 19/12 A3000 A02 5277
CURRENT KEWK 161656Z AUTO 13016G26KT 10+SM FEW022 SCT028 BKN048 18/11 A3001 A02 5276
CURRENT KEWK 161556Z AUTO 14018G22KT 10+SM BKN019 OVC028 17/11 A3001 A02 5275
CURRENT KEWK 161456Z AUTO 13017G22KT 10+SM OVC015 17/11 A2999 A02 5274
CURRENT KEWK 161356Z AUTO 13019G23KT 10+SM OVC013 16/11 A2998 A02 5273
CURRENT KEWK 161256Z AUTO 12015KT 10+SM OVC013 15/11 A2998 A02 5272
CURRENT KEWK 161156Z AUTO 13016KT 10+SM OVC013 15/11 A2996 A02 5271
CURRENT KEWK 161056Z AUTO 13015KT 10+SM BKN015 OVC030 15/11 A2995 A02 5270
CURRENT KEWK 160956Z AUTO 14016G20KT 10+SM BKN013 BKN021 OVC050 16/11 A2995 A02 5269
CURRENT KEWK 160856Z AUTO 14014KT 10+SM OVC013 16/11 A2994 A02 5268
CURRENT KEWK 160756Z AUTO 13018G23KT 10+SM BKN015 OVC042 15/11 A2992 A02 5267
CURRENT KEWK 160656Z AUTO 12011KT 10+SM BKN044 15/09 A2992 A02 5266
CURRENT KEWK 160556Z AUTO 11008KT 10+SM CLR 15/09 A2992 A02 5265
CURRENT KEWK 160456Z AUTO 12012KT 10+SM CLR 15/09 A2990 A02 5264
CURRENT KEWK 160356Z AUTO 12012KT 10+SM CLR 16/09 A2991 A02 5263
CURRENT KEWK 160256Z AUTO 13015KT 10+SM CLR 17/09 A2990 A02 5262
CURRENT KEWK 160156Z AUTO 13015KT 10+SM CLR 18/08 A2989 A02 5261
CURRENT KEWK 160056Z AUTO 13015G26KT 10+SM CLR 19/08 A2988 A02 5260
CURRENT KEWK 152356Z AUTO 12020G25KT 10+SM FEW050 21/08 A2987 A02 5259
CURRENT KEWK 152256Z AUTO 13018G21KT 10+SM CLR 22/08 A2987 A02 5258
CURRENT KEWK 152156Z AUTO 14016G23KT 10+SM CLR 23/08 A2986 A02 5257
CURRENT KEWK 152056Z AUTO 14017G22KT 10+SM CLR 23/08 A2988 A02 5256
CURRENT KEWK 151956Z AUTO 15018G24KT 10+SM CLR 23/09 A2990 A02 5255
CURRENT KEWK 151856Z AUTO 17017G24KT 10+SM FEW045 22/09 A2992 A02 5254
CURRENT KEWK 151756Z AUTO 14018G24KT 10+SM FEW038 21/09 A2994 A02 5253
CURRENT KEWK 151656Z AUTO 16018G22KT 10+SM FEW032 20/10 A2996 A02 5252
CURRENT KEWK 151556Z AUTO 17014G22KT 10+SM FEW028 19/11 A2996 A02 5251
CURRENT KEWK 151456Z AUTO 17014KT 10+SM CLR 16/10 A2996 A02 5250
CURRENT KEWK 151356Z AUTO 16012KT 10+SM CLR 13/08 A2996 A02 5249
CURRENT KEWK 151256Z AUTO 14009KT 8SM CLR 10/07 A2995 A02 5248
CURRENT KEWK 151156Z AUTO 14008KT 8SM CLR 08/06 A2993 A02 5247
CURRENT KEWK 151056Z AUTO 14007KT 10+SM CLR 09/05 A2992 A02 5246
CURRENT KEWK 150956Z AUTO 15007KT 10SM CLR 08/05 A2992 A02 5245
CURRENT KEWK 150856Z AUTO 14007KT 10+SM CLR 09/06 A2992 A02 5244
CURRENT KEWK 150756Z AUTO 14008KT 8SM CLR 09/06 A2992 A02 5243
CURRENT KEWK 150656Z AUTO 15008KT 8SM CLR 11/06 A2993 A02 5242
CURRENT KEWK 150556Z AUTO 14008KT 9SM CLR 11/06 A2994 A02 5241